createdAt,value
2017-11-04T00:00:03.159Z,55.30
2017-11-04T00:02:30.470Z,58.27
2017-11-04T00:04:57.798Z,58.40
2017-11-04T00:07:25.147Z,56.07
2017-11-04T00:09:52.473Z,52.90
2017-11-04T00:12:19.782Z,54.47
2017-11-04T00:14:47.110Z,59.40
2017-11-04T00:17:14.451Z,57.37
2017-11-04T00:19:42.135Z,52.07
2017-11-04T00:22:09.491Z,52.93
2017-11-04T00:24:36.830Z,56.57
2017-11-04T00:27:04.129Z,54.80
2017-11-04T00:34:25.909Z,52.20
2017-11-04T00:36:53.237Z,51.17
2017-11-04T00:39:20.838Z,49.70
2017-11-04T00:41:48.153Z,49.97
2017-11-04T00:44:15.477Z,52.93
2017-11-04T00:46:42.814Z,51.60
2017-11-04T00:49:10.111Z,54.07
2017-11-04T00:51:37.431Z,56.90
2017-11-04T00:54:04.757Z,48.17
2017-11-04T00:56:32.081Z,48.43
2017-11-04T00:58:59.406Z,56.13
2017-11-04T01:01:26.726Z,52.63
2017-11-04T01:03:54.041Z,43.63
2017-11-04T01:06:21.356Z,48.87
2017-11-04T01:08:48.926Z,52.50
2017-11-04T01:11:16.572Z,48.70
2017-11-04T01:13:43.925Z,50.80
2017-11-04T01:16:11.241Z,48.60
2017-11-04T01:18:38.593Z,46.33
2017-11-04T01:21:05.905Z,52.60
2017-11-04T01:23:33.234Z,49.20
2017-11-04T01:26:00.556Z,54.93
2017-11-04T01:28:27.889Z,51.10
2017-11-04T01:30:55.199Z,47.47
2017-11-04T01:33:22.512Z,51.23
2017-11-04T01:35:49.830Z,53.30
2017-11-04T01:38:17.162Z,49.30
2017-11-04T01:40:44.480Z,50.53
2017-11-04T01:43:11.780Z,51.23
2017-11-04T01:45:39.137Z,49.03
2017-11-04T01:48:06.480Z,46.73
2017-11-04T01:50:33.801Z,51.83
2017-11-04T01:53:01.109Z,45.40
2017-11-04T01:55:28.430Z,48.87
2017-11-04T01:57:55.741Z,51.67
2017-11-04T02:00:24.185Z,43.97
2017-11-04T02:02:52.449Z,46.40
2017-11-04T02:05:19.810Z,45.60
2017-11-04T02:07:47.121Z,47.00
2017-11-04T02:10:14.456Z,43.53
2017-11-04T02:12:41.771Z,51.13
2017-11-04T02:15:09.097Z,47.17
2017-11-04T02:17:36.485Z,46.83
2017-11-04T02:20:03.826Z,41.97
2017-11-04T02:22:32.099Z,45.83
2017-11-04T02:24:59.404Z,47.27
2017-11-04T02:27:27.709Z,45.90
2017-11-04T02:29:55.024Z,48.53
2017-11-04T02:32:22.417Z,45.13
2017-11-04T02:34:49.729Z,48.63
2017-11-04T02:37:17.056Z,45.00
2017-11-04T02:39:44.370Z,43.20
2017-11-04T02:42:11.717Z,45.60
2017-11-04T02:44:39.042Z,43.90
2017-11-04T02:47:06.345Z,48.93
2017-11-04T02:49:33.668Z,46.43
2017-11-04T02:52:01.007Z,47.50
2017-11-04T02:54:28.318Z,44.00
2017-11-04T02:56:55.625Z,40.80
2017-11-04T02:59:22.969Z,43.90
2017-11-04T03:01:50.275Z,42.10
2017-11-04T03:04:17.605Z,47.10
2017-11-04T03:06:44.912Z,50.37
2017-11-04T03:09:12.242Z,47.27
2017-11-04T03:11:39.557Z,47.07
2017-11-04T03:14:07.172Z,48.23
2017-11-04T03:16:34.546Z,42.07
2017-11-04T03:19:01.875Z,45.27
2017-11-04T03:21:29.186Z,40.03
2017-11-04T03:23:56.513Z,42.53
2017-11-04T03:26:23.818Z,44.90
2017-11-04T03:28:51.325Z,40.03
2017-11-04T03:31:18.715Z,48.80
2017-11-04T03:33:46.015Z,45.60
2017-11-04T03:36:13.344Z,39.80
2017-11-04T03:38:40.649Z,42.60
2017-11-04T03:41:07.979Z,40.30
2017-11-04T03:43:35.292Z,45.73
2017-11-04T03:46:02.631Z,40.00
2017-11-04T03:48:29.941Z,39.83
2017-11-04T03:50:57.268Z,44.70
2017-11-04T03:53:24.582Z,51.00
2017-11-04T03:55:51.897Z,51.23
2017-11-04T03:58:19.213Z,38.50
2017-11-04T04:00:46.698Z,45.20
2017-11-04T04:03:16.097Z,45.33
2017-11-04T04:05:43.401Z,43.40
2017-11-04T04:08:10.754Z,43.10
2017-11-04T04:10:38.061Z,43.50
2017-11-04T04:13:05.393Z,43.63
2017-11-04T04:15:32.706Z,43.73
2017-11-04T04:18:00.029Z,47.57
2017-11-04T04:20:27.402Z,46.43
2017-11-04T04:22:54.703Z,40.90
2017-11-04T04:25:22.023Z,47.80
2017-11-04T04:27:49.344Z,44.67
2017-11-04T04:30:16.867Z,45.00
2017-11-04T04:32:44.185Z,43.73
2017-11-04T04:35:11.499Z,48.47
2017-11-04T04:37:38.835Z,50.53
2017-11-04T04:40:06.140Z,45.10
2017-11-04T04:42:33.456Z,41.60
2017-11-04T04:45:00.776Z,45.90
2017-11-04T04:47:28.090Z,45.13
2017-11-04T04:49:55.412Z,44.87
2017-11-04T04:52:22.730Z,45.43
2017-11-04T04:54:50.053Z,44.37
2017-11-04T04:57:17.361Z,40.40
2017-11-04T04:59:44.693Z,44.63
2017-11-04T05:02:12.006Z,48.87
2017-11-04T05:04:39.641Z,42.83
2017-11-04T05:07:06.949Z,43.50
2017-11-04T05:09:34.260Z,41.73
2017-11-04T05:12:01.565Z,44.43
2017-11-04T05:14:28.926Z,46.53
2017-11-04T05:16:56.251Z,41.07
2017-11-04T05:19:23.556Z,47.67
2017-11-04T05:21:50.900Z,45.07
2017-11-04T05:24:18.218Z,48.93
2017-11-04T05:26:45.541Z,42.80
2017-11-04T05:29:12.902Z,43.03
2017-11-04T05:31:40.225Z,43.17
2017-11-04T05:34:07.542Z,43.70
2017-11-04T05:36:34.868Z,50.87
2017-11-04T05:39:02.190Z,42.90
2017-11-04T05:41:29.534Z,44.10
2017-11-04T05:43:56.894Z,47.70
2017-11-04T05:46:24.248Z,45.17
2017-11-04T05:48:51.579Z,48.97
2017-11-04T05:51:18.950Z,55.67
2017-11-04T05:53:46.249Z,48.47
2017-11-04T05:56:13.583Z,53.73
2017-11-04T05:58:40.937Z,49.77
2017-11-04T06:01:08.261Z,54.50
2017-11-04T06:03:35.566Z,49.43
2017-11-04T06:06:02.908Z,49.20
2017-11-04T06:08:30.245Z,50.27
2017-11-04T06:10:57.564Z,53.20
2017-11-04T06:13:24.889Z,53.87
2017-11-04T06:15:53.168Z,56.40
2017-11-04T06:18:20.529Z,55.00
2017-11-04T06:20:47.841Z,50.00
2017-11-04T06:23:15.183Z,47.40
2017-11-04T06:25:42.515Z,48.80
2017-11-04T06:28:09.833Z,45.77
2017-11-04T06:30:37.135Z,45.73
2017-11-04T06:33:04.449Z,44.23
2017-11-04T06:35:31.781Z,52.70
2017-11-04T06:37:59.113Z,50.47
2017-11-04T06:40:26.718Z,48.83
2017-11-04T06:42:54.039Z,55.23
2017-11-04T06:45:21.386Z,57.93
2017-11-04T06:47:48.742Z,52.17
2017-11-04T06:50:16.064Z,52.30
2017-11-04T06:52:43.680Z,59.23
2017-11-04T06:55:10.975Z,52.83
2017-11-04T06:57:38.326Z,54.20
2017-11-04T07:00:05.653Z,56.20
2017-11-04T07:02:32.965Z,54.17
2017-11-04T07:05:00.321Z,58.57
2017-11-04T07:07:27.621Z,55.27
2017-11-04T07:09:54.959Z,61.57
2017-11-04T07:12:22.267Z,53.27
2017-11-04T07:14:49.602Z,53.83
2017-11-04T07:17:17.060Z,50.97
2017-11-04T07:19:44.380Z,55.47
2017-11-04T07:22:11.694Z,51.37
2017-11-04T07:24:39.003Z,57.00
2017-11-04T07:27:06.537Z,56.87
2017-11-04T07:29:33.848Z,57.13
2017-11-04T07:32:01.148Z,65.53
2017-11-04T07:34:28.452Z,61.20
2017-11-04T07:36:55.821Z,57.67
2017-11-04T07:39:23.185Z,56.73
2017-11-04T07:41:50.692Z,56.33
2017-11-04T07:44:18.213Z,61.50
2017-11-04T07:46:45.537Z,52.17
2017-11-04T07:49:12.862Z,58.13
2017-11-04T07:51:40.175Z,57.40
2017-11-04T07:54:07.505Z,58.63
2017-11-04T07:56:34.833Z,55.27
2017-11-04T07:59:02.536Z,53.30
2017-11-04T08:01:29.856Z,56.00
2017-11-04T08:03:57.202Z,53.90
2017-11-04T08:06:24.557Z,56.60
2017-11-04T08:08:51.852Z,51.03
2017-11-04T08:11:19.180Z,54.97
2017-11-04T08:13:46.509Z,56.37
2017-11-04T08:16:13.826Z,52.43
2017-11-04T08:18:41.153Z,56.10
2017-11-04T08:21:08.462Z,49.13
2017-11-04T08:23:35.953Z,58.63
2017-11-04T08:26:03.274Z,51.73
2017-11-04T08:28:30.600Z,61.17
2017-11-04T08:30:57.938Z,55.87
2017-11-04T08:33:25.256Z,54.70
2017-11-04T08:35:52.573Z,55.57
2017-11-04T08:38:19.910Z,58.93
2017-11-04T08:40:47.239Z,50.43
2017-11-04T08:43:14.614Z,51.93
2017-11-04T08:45:41.920Z,50.80
2017-11-04T08:48:09.229Z,53.90
2017-11-04T08:50:36.549Z,52.37
2017-11-04T08:53:03.857Z,54.30
2017-11-04T08:55:31.197Z,51.30
2017-11-04T08:57:58.801Z,50.70
2017-11-04T09:00:26.177Z,52.50
2017-11-04T09:02:53.496Z,49.60
2017-11-04T09:05:20.817Z,57.33
2017-11-04T09:07:48.130Z,47.93
2017-11-04T09:10:15.457Z,49.63
2017-11-04T09:12:43.179Z,49.70
2017-11-04T09:15:10.844Z,54.80
2017-11-04T09:17:38.771Z,51.13
2017-11-04T09:20:06.085Z,49.93
2017-11-04T09:22:33.432Z,51.33
2017-11-04T09:25:00.762Z,52.20
2017-11-04T09:27:28.103Z,46.07
2017-11-04T09:29:55.431Z,50.80
2017-11-04T09:32:22.765Z,51.67
2017-11-04T09:34:50.059Z,45.50
2017-11-04T09:37:17.372Z,45.73
2017-11-04T09:39:44.684Z,50.77
2017-11-04T09:42:12.000Z,53.17
2017-11-04T09:44:39.319Z,51.07
2017-11-04T09:47:06.635Z,44.53
2017-11-04T09:49:33.978Z,42.57
2017-11-04T09:52:01.297Z,51.17
2017-11-04T09:54:28.600Z,48.50
2017-11-04T09:56:55.909Z,48.40
2017-11-04T09:59:23.268Z,48.90
2017-11-04T10:01:50.558Z,45.80
2017-11-04T10:04:17.888Z,44.77
2017-11-04T10:06:45.184Z,47.70
2017-11-04T10:09:12.520Z,46.27
2017-11-04T10:11:39.820Z,47.40
2017-11-04T10:14:07.165Z,44.53
2017-11-04T10:16:34.461Z,44.53
2017-11-04T10:19:01.810Z,48.17
2017-11-04T10:21:30.282Z,47.73
2017-11-04T10:23:57.780Z,42.73
2017-11-04T10:26:25.141Z,46.30
2017-11-04T10:28:52.495Z,45.07
2017-11-04T10:31:19.809Z,41.93
2017-11-04T10:33:47.332Z,47.47
2017-11-04T10:36:21.500Z,50.43
2017-11-04T10:38:48.834Z,51.30
2017-11-04T10:41:16.156Z,46.77
2017-11-04T10:43:43.471Z,48.63
2017-11-04T10:46:10.797Z,48.63
2017-11-04T10:48:38.110Z,46.80
2017-11-04T10:51:05.428Z,50.17
2017-11-04T10:53:32.748Z,51.10
2017-11-04T10:56:00.959Z,48.63
2017-11-04T10:58:28.296Z,50.43
2017-11-04T11:00:55.642Z,46.60
2017-11-04T11:03:22.930Z,44.90
2017-11-04T11:05:50.321Z,45.10
2017-11-04T11:08:17.620Z,53.27
2017-11-04T11:10:44.930Z,44.93
2017-11-04T11:13:12.262Z,51.10
2017-11-04T11:15:39.572Z,44.80
2017-11-04T11:18:06.899Z,44.53
2017-11-04T11:20:34.213Z,43.57
2017-11-04T11:23:01.553Z,43.80
2017-11-04T11:25:28.864Z,46.13
2017-11-04T11:27:56.180Z,41.17
2017-11-04T11:30:23.788Z,43.90
2017-11-04T11:32:51.109Z,48.07
2017-11-04T11:35:18.439Z,43.70
2017-11-04T11:37:45.765Z,43.77
2017-11-04T11:40:13.064Z,44.57
2017-11-04T11:42:40.432Z,47.80
2017-11-04T11:45:07.752Z,44.53
2017-11-04T11:47:35.081Z,42.60
2017-11-04T11:50:02.861Z,42.37
2017-11-04T11:52:30.153Z,46.87
2017-11-04T11:54:57.489Z,43.80
2017-11-04T11:57:24.801Z,44.93
2017-11-04T11:59:52.453Z,40.77
2017-11-04T12:02:19.751Z,42.50
2017-11-04T12:04:47.552Z,43.55
2017-11-04T12:07:14.861Z,38.70
2017-11-04T12:09:42.206Z,40.73
2017-11-04T12:12:09.508Z,36.57
2017-11-04T12:14:37.602Z,38.73
2017-11-04T12:17:04.949Z,42.73
2017-11-04T12:19:32.254Z,36.20
2017-11-04T12:21:59.610Z,38.80
2017-11-04T12:24:26.989Z,34.93
2017-11-04T12:26:54.316Z,37.07
2017-11-04T12:29:22.536Z,34.43
2017-11-04T12:31:49.902Z,38.30
2017-11-04T12:34:17.458Z,37.43
2017-11-04T12:36:44.780Z,38.23
2017-11-04T12:39:12.082Z,35.27
2017-11-04T12:41:39.400Z,33.63
2017-11-04T12:44:06.729Z,32.53
2017-11-04T12:46:34.045Z,35.73
2017-11-04T12:49:01.363Z,35.03
2017-11-04T12:51:28.731Z,34.80
2017-11-04T12:53:56.023Z,36.87
2017-11-04T12:56:23.360Z,31.43
2017-11-04T12:58:50.672Z,30.97
2017-11-04T13:01:17.999Z,32.43
2017-11-04T13:03:45.479Z,32.93
2017-11-04T13:06:12.803Z,36.07
2017-11-04T13:08:40.124Z,36.50
2017-11-04T13:11:07.431Z,31.40
2017-11-04T13:13:34.769Z,33.27
2017-11-04T13:16:02.077Z,29.97
2017-11-04T13:18:29.410Z,29.83
2017-11-04T13:20:56.722Z,33.80
2017-11-04T13:23:24.050Z,30.20
2017-11-04T13:25:51.418Z,31.37
2017-11-04T13:28:18.965Z,31.07
2017-11-04T13:30:46.256Z,31.63
2017-11-04T13:33:13.632Z,30.67
2017-11-04T13:35:40.969Z,34.20
2017-11-04T13:38:08.449Z,30.23
2017-11-04T13:40:35.772Z,31.30
2017-11-04T13:43:03.068Z,34.83
2017-11-04T13:45:30.398Z,32.07
2017-11-04T13:47:57.720Z,33.50
2017-11-04T13:50:25.041Z,31.40
2017-11-04T13:52:52.340Z,34.87
2017-11-04T13:55:19.661Z,34.30
2017-11-04T13:57:47.000Z,33.23
2017-11-04T14:00:14.316Z,34.77
2017-11-04T14:02:41.629Z,33.33
2017-11-04T14:05:08.981Z,33.87
2017-11-04T14:07:36.280Z,35.87
2017-11-04T14:10:03.583Z,34.03
2017-11-04T14:12:30.948Z,35.90
2017-11-04T14:14:58.252Z,37.97
2017-11-04T14:17:25.649Z,37.43
2017-11-04T14:19:52.956Z,31.50
2017-11-04T14:22:20.279Z,35.10
2017-11-04T14:24:47.582Z,34.13
2017-11-04T14:27:14.930Z,38.37
2017-11-04T14:29:42.331Z,38.80
2017-11-04T14:32:09.679Z,36.50
2017-11-04T14:34:37.033Z,34.80
2017-11-04T14:37:04.362Z,38.30
2017-11-04T14:39:31.660Z,35.03
2017-11-04T14:41:59.000Z,39.50
2017-11-04T14:44:26.312Z,35.80
2017-11-04T14:46:54.616Z,41.60
2017-11-04T14:49:21.974Z,41.83
2017-11-04T14:51:49.267Z,40.00
2017-11-04T14:54:16.604Z,35.37
2017-11-04T14:56:43.899Z,39.10
2017-11-04T14:59:11.235Z,38.93
2017-11-04T15:01:38.550Z,39.80
2017-11-04T15:04:05.877Z,40.40
2017-11-04T15:06:33.182Z,44.07
2017-11-04T15:09:00.516Z,42.10
2017-11-04T15:11:27.824Z,40.63
2017-11-04T15:13:55.148Z,41.30
2017-11-04T15:16:23.461Z,43.13
2017-11-04T15:18:50.836Z,45.63
2017-11-04T15:21:18.185Z,42.87
2017-11-04T15:23:45.485Z,39.57
2017-11-04T15:26:12.812Z,39.90
2017-11-04T15:28:40.124Z,43.00
2017-11-04T15:31:07.440Z,49.33
2017-11-04T15:33:34.904Z,43.37
2017-11-04T15:36:02.233Z,41.00
2017-11-04T15:38:29.545Z,43.93
2017-11-04T15:40:56.859Z,40.23
2017-11-04T15:43:24.177Z,45.93
2017-11-04T15:45:51.499Z,42.10
2017-11-04T15:48:18.812Z,41.10
2017-11-04T15:50:46.119Z,39.07
2017-11-04T15:53:13.453Z,39.23
2017-11-04T15:55:40.836Z,45.77
2017-11-04T15:58:08.189Z,35.60
2017-11-04T16:00:35.504Z,42.40
2017-11-04T16:03:02.842Z,41.60
2017-11-04T16:05:30.168Z,35.87
2017-11-04T16:07:57.503Z,38.33
2017-11-04T16:10:24.848Z,42.93
2017-11-04T16:12:52.347Z,42.57
2017-11-04T16:15:19.675Z,42.00
2017-11-04T16:17:46.996Z,35.90
2017-11-04T16:20:14.316Z,35.77
2017-11-04T16:22:41.714Z,39.67
2017-11-04T16:25:09.237Z,36.23
2017-11-04T16:27:36.712Z,38.70
2017-11-04T16:30:04.030Z,40.43
2017-11-04T16:32:31.407Z,39.47
2017-11-04T16:34:58.717Z,40.20
2017-11-04T16:37:26.032Z,43.20
2017-11-04T16:39:53.339Z,38.77
2017-11-04T16:42:20.764Z,41.77
2017-11-04T16:44:48.623Z,39.47
2017-11-04T16:47:15.926Z,40.30
2017-11-04T16:49:43.271Z,41.60
2017-11-04T16:52:10.575Z,36.37
2017-11-04T16:54:37.902Z,39.90
2017-11-04T16:57:05.282Z,39.73
2017-11-04T16:59:32.627Z,38.50
2017-11-04T17:01:59.932Z,40.27
2017-11-04T17:04:27.268Z,44.33
2017-11-04T17:06:54.594Z,42.80
2017-11-04T17:09:21.922Z,39.13
2017-11-04T17:11:49.253Z,38.90
2017-11-04T17:14:16.555Z,40.03
2017-11-04T17:16:43.872Z,40.57
2017-11-04T17:19:11.185Z,37.90
2017-11-04T17:21:38.510Z,36.90
2017-11-04T17:24:05.820Z,37.87
2017-11-04T17:26:33.138Z,37.77
2017-11-04T17:29:00.460Z,38.50
2017-11-04T17:31:27.779Z,46.20
2017-11-04T17:33:55.119Z,38.77
2017-11-04T17:36:22.497Z,42.60
2017-11-04T17:38:49.830Z,37.20
2017-11-04T17:41:17.170Z,40.27
2017-11-04T17:43:44.510Z,40.93
2017-11-04T17:46:11.839Z,44.60
2017-11-04T17:48:39.164Z,42.63
2017-11-04T17:51:06.484Z,37.97
2017-11-04T17:53:33.797Z,40.30
2017-11-04T17:56:01.103Z,39.30
2017-11-04T17:58:28.425Z,39.87
2017-11-04T18:00:55.756Z,39.67
2017-11-04T18:03:23.082Z,40.60
2017-11-04T18:05:50.382Z,48.00
2017-11-04T18:08:17.860Z,40.97
2017-11-04T18:10:45.171Z,41.40
2017-11-04T18:13:12.528Z,37.17
2017-11-04T18:15:39.876Z,40.43
2017-11-04T18:18:07.211Z,42.90
2017-11-04T18:20:34.501Z,41.93
2017-11-04T18:23:01.799Z,40.60
2017-11-04T18:25:29.152Z,40.10
2017-11-04T18:27:56.463Z,43.70
2017-11-04T18:30:23.791Z,42.53
2017-11-04T18:32:51.100Z,41.30
2017-11-04T18:35:18.437Z,41.80
2017-11-04T18:37:45.798Z,42.70
2017-11-04T18:40:13.133Z,41.17
2017-11-04T18:42:40.428Z,46.70
2017-11-04T18:45:07.748Z,39.03
2017-11-04T18:47:35.051Z,43.57
2017-11-04T18:50:02.369Z,43.37
2017-11-04T18:52:29.694Z,41.73
2017-11-04T18:54:57.007Z,46.23
2017-11-04T18:57:24.334Z,46.60
2017-11-04T18:59:51.648Z,41.77
2017-11-04T19:02:19.019Z,43.83
2017-11-04T19:04:46.320Z,42.23
2017-11-04T19:07:13.708Z,44.00
2017-11-04T19:09:41.012Z,41.87
2017-11-04T19:12:08.390Z,42.00
2017-11-04T19:14:35.695Z,43.77
2017-11-04T19:17:03.084Z,40.43
2017-11-04T19:19:30.400Z,40.20
2017-11-04T19:21:58.049Z,45.50
2017-11-04T19:24:25.719Z,45.27
2017-11-04T19:26:53.070Z,45.80
2017-11-04T19:29:20.546Z,37.67
2017-11-04T19:31:48.028Z,43.57
2017-11-04T19:34:15.349Z,38.93
2017-11-04T19:36:42.680Z,39.00
2017-11-04T19:39:10.021Z,39.70
2017-11-04T19:41:37.329Z,39.83
2017-11-04T19:44:04.664Z,40.20
2017-11-04T19:46:31.980Z,39.87
2017-11-04T19:48:59.320Z,46.00
2017-11-04T19:51:26.660Z,41.10
2017-11-04T19:53:53.979Z,39.13
2017-11-04T19:56:21.320Z,44.37
2017-11-04T19:58:48.676Z,43.50
2017-11-04T20:01:15.999Z,42.03
2017-11-04T20:03:43.326Z,46.90
2017-11-04T20:06:10.640Z,38.57
2017-11-04T20:08:37.941Z,45.13
2017-11-04T20:11:05.269Z,45.83
2017-11-04T20:13:32.577Z,48.63
2017-11-04T20:15:59.901Z,42.17
2017-11-04T20:18:27.204Z,43.63
2017-11-04T20:20:54.692Z,46.10
2017-11-04T20:23:21.992Z,46.53
2017-11-04T20:25:49.328Z,44.93
2017-11-04T20:28:16.630Z,46.53
2017-11-04T20:30:43.971Z,43.80
2017-11-04T20:33:11.275Z,50.27
2017-11-04T20:35:38.600Z,50.83
2017-11-04T20:38:05.925Z,45.33
2017-11-04T20:40:33.220Z,52.23
2017-11-04T20:43:00.551Z,47.07
2017-11-04T20:45:27.895Z,53.80
2017-11-04T20:47:55.356Z,50.07
2017-11-04T20:50:22.729Z,48.90
2017-11-04T20:52:50.656Z,52.40
2017-11-04T20:55:18.257Z,53.73
2017-11-04T20:57:45.576Z,55.37
2017-11-04T21:00:12.892Z,51.03
2017-11-04T21:02:40.208Z,51.30
2017-11-04T21:05:07.524Z,55.43
2017-11-04T21:07:34.893Z,55.97
2017-11-04T21:10:02.199Z,59.77
2017-11-04T21:12:29.532Z,47.83
2017-11-04T21:14:56.864Z,47.93
2017-11-04T21:17:24.176Z,55.47
2017-11-04T21:19:51.506Z,50.00
2017-11-04T21:22:19.756Z,53.57
2017-11-04T21:24:47.072Z,52.20
2017-11-04T21:27:14.375Z,54.90
2017-11-04T21:29:41.729Z,48.23
2017-11-04T21:32:09.229Z,47.33
2017-11-04T21:34:37.101Z,49.80
2017-11-04T21:37:04.661Z,54.77
2017-11-04T21:39:31.988Z,50.43
2017-11-04T21:41:59.304Z,49.03
2017-11-04T21:44:26.864Z,52.80
2017-11-04T21:46:54.173Z,54.37
2017-11-04T21:49:21.483Z,54.10
2017-11-04T21:51:48.800Z,47.23
2017-11-04T21:54:16.121Z,49.67
2017-11-04T21:56:43.452Z,52.43
2017-11-04T21:59:10.752Z,53.47
2017-11-04T22:01:38.089Z,50.97
2017-11-04T22:04:05.444Z,49.67
2017-11-04T22:06:32.781Z,56.00
2017-11-04T22:09:00.106Z,51.23
2017-11-04T22:11:27.477Z,49.27
2017-11-04T22:13:54.808Z,49.43
2017-11-04T22:16:22.308Z,54.00
2017-11-04T22:18:49.619Z,50.47
2017-11-04T22:21:16.957Z,54.97
2017-11-04T22:23:44.298Z,49.40
2017-11-04T22:26:11.636Z,47.07
2017-11-04T22:28:38.936Z,50.60
2017-11-04T22:31:06.247Z,54.10
2017-11-04T22:33:33.559Z,48.90
2017-11-04T22:36:00.895Z,52.40
2017-11-04T22:38:28.220Z,55.03
2017-11-04T22:40:55.652Z,51.70
2017-11-04T22:43:22.987Z,51.03
2017-11-04T22:45:50.292Z,51.83
2017-11-04T22:48:18.762Z,48.90
2017-11-04T22:50:46.080Z,49.10
2017-11-04T22:53:13.396Z,49.67
2017-11-04T22:55:40.704Z,53.03
2017-11-04T22:58:08.224Z,50.87
2017-11-04T23:00:35.608Z,49.30
2017-11-04T23:03:02.927Z,54.33
2017-11-04T23:05:30.262Z,50.53
2017-11-04T23:07:57.560Z,49.70
2017-11-04T23:10:24.886Z,47.53
2017-11-04T23:12:52.180Z,54.23
2017-11-04T23:15:19.508Z,52.77
2017-11-04T23:17:46.845Z,51.40
2017-11-04T23:20:14.603Z,56.30
2017-11-04T23:22:41.892Z,53.70
2017-11-04T23:25:09.203Z,50.17
2017-11-04T23:27:36.506Z,52.77
2017-11-04T23:30:03.828Z,54.37
2017-11-04T23:32:31.144Z,52.00
2017-11-04T23:34:58.480Z,53.77
2017-11-04T23:37:25.825Z,50.40
2017-11-04T23:39:53.164Z,54.00
2017-11-04T23:42:20.510Z,53.20
2017-11-04T23:44:47.804Z,51.40
2017-11-04T23:47:15.129Z,51.60
2017-11-04T23:49:42.432Z,49.20
2017-11-04T23:52:09.756Z,49.60
2017-11-04T23:54:37.065Z,55.67
2017-11-04T23:57:04.397Z,49.83
2017-11-04T23:59:32.644Z,47.43
